sensor_id;sensor_type;location;lat;lon;timestamp;P1;durP1;ratioP1;P2;durP2;ratioP2
6941;SDS011;3510;43.200;27.920;2024-02-04T00:00:24;5.13;;;2.57;;
6941;SDS011;3510;43.200;27.920;2024-02-04T00:02:50;2.50;;;2.40;;
6941;SDS011;3510;43.200;27.920;2024-02-04T00:05:18;7.70;;;3.03;;
6941;SDS011;3510;43.200;27.920;2024-02-04T00:07:46;3.60;;;3.30;;
6941;SDS011;3510;43.200;27.920;2024-02-04T00:10:12;3.57;;;3.20;;
6941;SDS011;3510;43.200;27.920;2024-02-04T00:12:40;5.40;;;3.57;;
6941;SDS011;3510;43.200;27.920;2024-02-04T00:15:08;3.10;;;2.77;;
6941;SDS011;3510;43.200;27.920;2024-02-04T00:17:35;5.23;;;4.30;;
6941;SDS011;3510;43.200;27.920;2024-02-04T00:20:02;2.17;;;2.07;;
6941;SDS011;3510;43.200;27.920;2024-02-04T00:22:32;5.90;;;3.90;;
6941;SDS011;3510;43.200;27.920;2024-02-04T00:24:59;7.93;;;4.03;;
6941;SDS011;3510;43.200;27.920;2024-02-04T00:27:30;3.83;;;3.53;;
6941;SDS011;3510;43.200;27.920;2024-02-04T00:29:56;7.27;;;4.70;;
6941;SDS011;3510;43.200;27.920;2024-02-04T00:32:23;5.20;;;4.53;;
6941;SDS011;3510;43.200;27.920;2024-02-04T00:34:50;9.60;;;7.30;;
6941;SDS011;3510;43.200;27.920;2024-02-04T00:37:17;3.63;;;3.33;;
6941;SDS011;3510;43.200;27.920;2024-02-04T00:39:46;6.00;;;4.57;;
6941;SDS011;3510;43.200;27.920;2024-02-04T00:42:12;9.33;;;4.70;;
6941;SDS011;3510;43.200;27.920;2024-02-04T00:44:39;4.83;;;3.47;;
6941;SDS011;3510;43.200;27.920;2024-02-04T00:47:06;4.03;;;3.70;;
6941;SDS011;3510;43.200;27.920;2024-02-04T00:49:33;2.57;;;2.37;;
6941;SDS011;3510;43.200;27.920;2024-02-04T00:51:59;9.80;;;7.03;;
6941;SDS011;3510;43.200;27.920;2024-02-04T00:54:26;8.37;;;6.83;;
6941;SDS011;3510;43.200;27.920;2024-02-04T00:56:54;4.90;;;4.40;;
6941;SDS011;3510;43.200;27.920;2024-02-04T00:59:22;9.87;;;5.37;;
6941;SDS011;3510;43.200;27.920;2024-02-04T01:01:49;3.87;;;3.57;;
6941;SDS011;3510;43.200;27.920;2024-02-04T01:04:16;9.27;;;5.07;;
6941;SDS011;3510;43.200;27.920;2024-02-04T01:06:42;4.30;;;3.90;;
6941;SDS011;3510;43.200;27.920;2024-02-04T01:09:09;3.97;;;3.60;;
6941;SDS011;3510;43.200;27.920;2024-02-04T01:11:36;4.07;;;3.73;;
6941;SDS011;3510;43.200;27.920;2024-02-04T01:14:04;5.63;;;3.87;;
6941;SDS011;3510;43.200;27.920;2024-02-04T01:16:31;3.97;;;3.67;;
6941;SDS011;3510;43.200;27.920;2024-02-04T01:18:57;3.83;;;3.53;;
6941;SDS011;3510;43.200;27.920;2024-02-04T01:21:24;4.23;;;3.93;;
6941;SDS011;3510;43.200;27.920;2024-02-04T01:23:52;3.90;;;3.50;;
6941;SDS011;3510;43.200;27.920;2024-02-04T01:26:18;4.43;;;4.03;;
6941;SDS011;3510;43.200;27.920;2024-02-04T01:28:45;3.53;;;3.23;;
6941;SDS011;3510;43.200;27.920;2024-02-04T01:31:13;5.57;;;4.27;;
6941;SDS011;3510;43.200;27.920;2024-02-04T01:33:40;9.10;;;3.53;;
6941;SDS011;3510;43.200;27.920;2024-02-04T01:36:06;4.77;;;3.60;;
6941;SDS011;3510;43.200;27.920;2024-02-04T01:38:33;7.20;;;4.67;;
6941;SDS011;3510;43.200;27.920;2024-02-04T01:41:00;4.80;;;4.40;;
6941;SDS011;3510;43.200;27.920;2024-02-04T01:43:27;8.70;;;7.90;;
6941;SDS011;3510;43.200;27.920;2024-02-04T01:45:54;3.80;;;3.50;;
6941;SDS011;3510;43.200;27.920;2024-02-04T01:48:23;3.03;;;2.90;;
6941;SDS011;3510;43.200;27.920;2024-02-04T01:50:51;4.93;;;3.67;;
6941;SDS011;3510;43.200;27.920;2024-02-04T01:53:21;4.23;;;3.87;;
6941;SDS011;3510;43.200;27.920;2024-02-04T01:55:49;4.53;;;3.87;;
6941;SDS011;3510;43.200;27.920;2024-02-04T01:58:16;5.47;;;4.90;;
6941;SDS011;3510;43.200;27.920;2024-02-04T02:00:43;7.00;;;4.80;;
6941;SDS011;3510;43.200;27.920;2024-02-04T02:03:11;4.90;;;4.50;;
6941;SDS011;3510;43.200;27.920;2024-02-04T02:05:40;7.10;;;4.97;;
6941;SDS011;3510;43.200;27.920;2024-02-04T02:08:07;4.80;;;3.97;;
6941;SDS011;3510;43.200;27.920;2024-02-04T02:10:35;5.67;;;5.17;;
6941;SDS011;3510;43.200;27.920;2024-02-04T02:13:04;4.43;;;4.13;;
6941;SDS011;3510;43.200;27.920;2024-02-04T02:15:39;4.87;;;4.27;;
6941;SDS011;3510;43.200;27.920;2024-02-04T02:18:11;4.47;;;3.87;;
6941;SDS011;3510;43.200;27.920;2024-02-04T02:20:47;4.90;;;4.40;;
6941;SDS011;3510;43.200;27.920;2024-02-04T02:23:39;7.57;;;4.93;;
6941;SDS011;3510;43.200;27.920;2024-02-04T02:26:21;5.83;;;5.30;;
6941;SDS011;3510;43.200;27.920;2024-02-04T02:28:49;8.27;;;5.83;;
6941;SDS011;3510;43.200;27.920;2024-02-04T02:31:15;4.63;;;4.23;;
6941;SDS011;3510;43.200;27.920;2024-02-04T02:33:42;5.97;;;5.43;;
6941;SDS011;3510;43.200;27.920;2024-02-04T02:36:12;11.90;;;5.27;;
6941;SDS011;3510;43.200;27.920;2024-02-04T02:38:44;7.43;;;6.63;;
6941;SDS011;3510;43.200;27.920;2024-02-04T02:41:19;9.70;;;5.90;;
6941;SDS011;3510;43.200;27.920;2024-02-04T02:43:49;6.07;;;5.47;;
6941;SDS011;3510;43.200;27.920;2024-02-04T02:46:18;7.53;;;5.67;;
6941;SDS011;3510;43.200;27.920;2024-02-04T02:48:45;7.73;;;5.93;;
6941;SDS011;3510;43.200;27.920;2024-02-04T02:51:13;9.80;;;6.50;;
6941;SDS011;3510;43.200;27.920;2024-02-04T02:53:39;7.30;;;5.73;;
6941;SDS011;3510;43.200;27.920;2024-02-04T02:56:06;6.53;;;5.97;;
6941;SDS011;3510;43.200;27.920;2024-02-04T02:58:34;6.40;;;5.83;;
6941;SDS011;3510;43.200;27.920;2024-02-04T03:01:01;5.03;;;4.23;;
6941;SDS011;3510;43.200;27.920;2024-02-04T03:03:28;8.47;;;7.67;;
6941;SDS011;3510;43.200;27.920;2024-02-04T03:05:54;10.17;;;6.23;;
6941;SDS011;3510;43.200;27.920;2024-02-04T03:08:21;5.47;;;5.03;;
6941;SDS011;3510;43.200;27.920;2024-02-04T03:10:48;6.27;;;5.67;;
6941;SDS011;3510;43.200;27.920;2024-02-04T03:13:14;11.30;;;6.40;;
6941;SDS011;3510;43.200;27.920;2024-02-04T03:15:43;10.10;;;6.87;;
6941;SDS011;3510;43.200;27.920;2024-02-04T03:18:10;7.97;;;5.73;;
6941;SDS011;3510;43.200;27.920;2024-02-04T03:20:37;6.80;;;5.03;;
6941;SDS011;3510;43.200;27.920;2024-02-04T03:23:04;6.30;;;4.53;;
6941;SDS011;3510;43.200;27.920;2024-02-04T03:25:31;6.93;;;6.33;;
6941;SDS011;3510;43.200;27.920;2024-02-04T03:27:57;6.10;;;5.13;;
6941;SDS011;3510;43.200;27.920;2024-02-04T03:30:24;6.23;;;5.63;;
6941;SDS011;3510;43.200;27.920;2024-02-04T03:32:53;8.27;;;6.93;;
6941;SDS011;3510;43.200;27.920;2024-02-04T03:35:20;7.83;;;5.80;;
6941;SDS011;3510;43.200;27.920;2024-02-04T03:37:47;7.07;;;5.83;;
6941;SDS011;3510;43.200;27.920;2024-02-04T03:40:14;4.10;;;3.70;;
6941;SDS011;3510;43.200;27.920;2024-02-04T03:42:43;5.23;;;4.57;;
6941;SDS011;3510;43.200;27.920;2024-02-04T03:45:09;5.57;;;4.57;;
6941;SDS011;3510;43.200;27.920;2024-02-04T03:47:36;7.40;;;5.87;;
6941;SDS011;3510;43.200;27.920;2024-02-04T03:50:04;14.23;;;4.33;;
6941;SDS011;3510;43.200;27.920;2024-02-04T03:52:31;6.10;;;5.03;;
6941;SDS011;3510;43.200;27.920;2024-02-04T03:54:59;7.13;;;6.33;;
6941;SDS011;3510;43.200;27.920;2024-02-04T03:57:25;7.57;;;6.03;;
6941;SDS011;3510;43.200;27.920;2024-02-04T03:59:52;7.43;;;5.43;;
6941;SDS011;3510;43.200;27.920;2024-02-04T04:02:19;5.77;;;3.83;;
6941;SDS011;3510;43.200;27.920;2024-02-04T04:04:45;5.60;;;5.03;;
6941;SDS011;3510;43.200;27.920;2024-02-04T04:07:14;15.87;;;8.13;;
6941;SDS011;3510;43.200;27.920;2024-02-04T04:09:41;5.60;;;4.57;;
6941;SDS011;3510;43.200;27.920;2024-02-04T04:12:08;6.33;;;3.57;;
6941;SDS011;3510;43.200;27.920;2024-02-04T04:14:34;5.83;;;4.23;;
6941;SDS011;3510;43.200;27.920;2024-02-04T04:17:01;10.93;;;9.17;;
6941;SDS011;3510;43.200;27.920;2024-02-04T04:19:28;5.70;;;5.23;;
6941;SDS011;3510;43.200;27.920;2024-02-04T04:21:55;5.63;;;4.10;;
6941;SDS011;3510;43.200;27.920;2024-02-04T04:24:23;8.50;;;6.83;;
6941;SDS011;3510;43.200;27.920;2024-02-04T04:26:50;4.90;;;4.47;;
6941;SDS011;3510;43.200;27.920;2024-02-04T04:29:16;5.63;;;5.13;;
6941;SDS011;3510;43.200;27.920;2024-02-04T04:31:43;6.07;;;5.47;;
6941;SDS011;3510;43.200;27.920;2024-02-04T04:34:10;9.90;;;5.87;;
6941;SDS011;3510;43.200;27.920;2024-02-04T04:36:37;4.30;;;4.00;;
6941;SDS011;3510;43.200;27.920;2024-02-04T04:39:03;5.17;;;4.63;;
6941;SDS011;3510;43.200;27.920;2024-02-04T04:41:31;5.90;;;4.90;;
6941;SDS011;3510;43.200;27.920;2024-02-04T04:43:58;11.83;;;5.30;;
6941;SDS011;3510;43.200;27.920;2024-02-04T04:46:25;8.83;;;6.40;;
6941;SDS011;3510;43.200;27.920;2024-02-04T04:48:51;7.53;;;6.77;;
6941;SDS011;3510;43.200;27.920;2024-02-04T04:51:22;7.07;;;6.43;;
6941;SDS011;3510;43.200;27.920;2024-02-04T04:53:49;6.20;;;5.37;;
6941;SDS011;3510;43.200;27.920;2024-02-04T04:56:16;7.57;;;5.23;;
6941;SDS011;3510;43.200;27.920;2024-02-04T04:58:44;7.67;;;4.97;;
6941;SDS011;3510;43.200;27.920;2024-02-04T05:01:11;8.60;;;6.50;;
6941;SDS011;3510;43.200;27.920;2024-02-04T05:03:37;6.87;;;6.20;;
6941;SDS011;3510;43.200;27.920;2024-02-04T05:06:04;15.37;;;7.17;;
6941;SDS011;3510;43.200;27.920;2024-02-04T05:08:31;7.73;;;6.13;;
6941;SDS011;3510;43.200;27.920;2024-02-04T05:10:58;5.97;;;5.47;;
6941;SDS011;3510;43.200;27.920;2024-02-04T05:13:24;6.37;;;5.73;;
6941;SDS011;3510;43.200;27.920;2024-02-04T05:15:53;4.70;;;4.30;;
6941;SDS011;3510;43.200;27.920;2024-02-04T05:18:20;7.23;;;6.03;;
6941;SDS011;3510;43.200;27.920;2024-02-04T05:20:47;6.77;;;5.30;;
6941;SDS011;3510;43.200;27.920;2024-02-04T05:23:14;7.00;;;5.87;;
6941;SDS011;3510;43.200;27.920;2024-02-04T05:25:41;3.87;;;3.67;;
6941;SDS011;3510;43.200;27.920;2024-02-04T05:28:07;5.40;;;4.90;;
6941;SDS011;3510;43.200;27.920;2024-02-04T05:30:34;6.87;;;5.10;;
6941;SDS011;3510;43.200;27.920;2024-02-04T05:33:02;4.40;;;4.00;;
6941;SDS011;3510;43.200;27.920;2024-02-04T05:35:29;3.60;;;3.33;;
6941;SDS011;3510;43.200;27.920;2024-02-04T05:37:56;4.63;;;4.27;;
6941;SDS011;3510;43.200;27.920;2024-02-04T05:40:23;9.30;;;4.67;;
6941;SDS011;3510;43.200;27.920;2024-02-04T05:42:49;5.90;;;5.27;;
6941;SDS011;3510;43.200;27.920;2024-02-04T05:45:17;6.40;;;5.90;;
6941;SDS011;3510;43.200;27.920;2024-02-04T05:47:43;7.03;;;4.37;;
6941;SDS011;3510;43.200;27.920;2024-02-04T05:50:11;6.57;;;5.07;;
6941;SDS011;3510;43.200;27.920;2024-02-04T05:52:38;9.23;;;5.67;;
6941;SDS011;3510;43.200;27.920;2024-02-04T05:55:06;11.70;;;6.70;;
6941;SDS011;3510;43.200;27.920;2024-02-04T05:57:33;5.00;;;4.60;;
6941;SDS011;3510;43.200;27.920;2024-02-04T06:00:01;5.83;;;5.33;;
6941;SDS011;3510;43.200;27.920;2024-02-04T06:02:28;6.60;;;5.97;;
6941;SDS011;3510;43.200;27.920;2024-02-04T06:04:54;6.60;;;5.80;;
6941;SDS011;3510;43.200;27.920;2024-02-04T06:07:22;6.90;;;6.20;;
6941;SDS011;3510;43.200;27.920;2024-02-04T06:09:49;7.47;;;5.20;;
6941;SDS011;3510;43.200;27.920;2024-02-04T06:12:16;5.70;;;5.13;;
6941;SDS011;3510;43.200;27.920;2024-02-04T06:14:42;4.53;;;4.20;;
6941;SDS011;3510;43.200;27.920;2024-02-04T06:17:09;7.70;;;4.77;;
6941;SDS011;3510;43.200;27.920;2024-02-04T06:19:36;5.60;;;5.03;;
6941;SDS011;3510;43.200;27.920;2024-02-04T06:22:03;8.07;;;5.90;;
6941;SDS011;3510;43.200;27.920;2024-02-04T06:24:31;5.37;;;4.47;;
6941;SDS011;3510;43.200;27.920;2024-02-04T06:26:57;5.50;;;4.97;;
6941;SDS011;3510;43.200;27.920;2024-02-04T06:29:24;5.63;;;5.23;;
6941;SDS011;3510;43.200;27.920;2024-02-04T06:31:51;5.37;;;4.87;;
6941;SDS011;3510;43.200;27.920;2024-02-04T06:34:18;6.57;;;5.60;;
6941;SDS011;3510;43.200;27.920;2024-02-04T06:36:44;5.43;;;5.03;;
6941;SDS011;3510;43.200;27.920;2024-02-04T06:39:11;6.43;;;5.67;;
6941;SDS011;3510;43.200;27.920;2024-02-04T06:41:39;5.80;;;5.23;;
6941;SDS011;3510;43.200;27.920;2024-02-04T06:44:06;7.77;;;6.13;;
6941;SDS011;3510;43.200;27.920;2024-02-04T06:46:32;6.13;;;5.63;;
6941;SDS011;3510;43.200;27.920;2024-02-04T06:48:59;7.17;;;5.27;;
6941;SDS011;3510;43.200;27.920;2024-02-04T06:51:26;6.57;;;5.93;;
6941;SDS011;3510;43.200;27.920;2024-02-04T06:53:53;7.53;;;6.33;;
6941;SDS011;3510;43.200;27.920;2024-02-04T06:56:19;6.43;;;5.80;;
6941;SDS011;3510;43.200;27.920;2024-02-04T06:58:47;7.60;;;5.33;;
6941;SDS011;3510;43.200;27.920;2024-02-04T07:01:14;6.03;;;5.23;;
6941;SDS011;3510;43.200;27.920;2024-02-04T07:03:41;8.27;;;6.07;;
6941;SDS011;3510;43.200;27.920;2024-02-04T07:06:08;10.53;;;6.77;;
6941;SDS011;3510;43.200;27.920;2024-02-04T07:08:35;10.53;;;6.17;;
6941;SDS011;3510;43.200;27.920;2024-02-04T07:11:02;9.30;;;6.27;;
6941;SDS011;3510;43.200;27.920;2024-02-04T07:13:29;13.73;;;7.77;;
6941;SDS011;3510;43.200;27.920;2024-02-04T07:15:57;17.80;;;7.47;;
6941;SDS011;3510;43.200;27.920;2024-02-04T07:18:24;7.30;;;6.40;;
6941;SDS011;3510;43.200;27.920;2024-02-04T07:20:51;6.43;;;5.17;;
6941;SDS011;3510;43.200;27.920;2024-02-04T07:23:17;5.30;;;4.77;;
6941;SDS011;3510;43.200;27.920;2024-02-04T07:25:44;5.97;;;5.43;;
6941;SDS011;3510;43.200;27.920;2024-02-04T07:28:11;5.73;;;5.23;;
6941;SDS011;3510;43.200;27.920;2024-02-04T07:30:37;9.77;;;6.43;;
6941;SDS011;3510;43.200;27.920;2024-02-04T07:33:05;9.13;;;6.30;;
6941;SDS011;3510;43.200;27.920;2024-02-04T07:35:32;12.57;;;6.97;;
6941;SDS011;3510;43.200;27.920;2024-02-04T07:37:59;9.00;;;6.03;;
6941;SDS011;3510;43.200;27.920;2024-02-04T07:40:26;5.23;;;4.73;;
6941;SDS011;3510;43.200;27.920;2024-02-04T07:42:53;8.50;;;6.17;;
6941;SDS011;3510;43.200;27.920;2024-02-04T07:45:20;5.60;;;5.10;;
6941;SDS011;3510;43.200;27.920;2024-02-04T07:47:47;5.00;;;4.57;;
6941;SDS011;3510;43.200;27.920;2024-02-04T07:50:15;7.13;;;6.43;;
6941;SDS011;3510;43.200;27.920;2024-02-04T07:52:41;5.00;;;4.60;;
6941;SDS011;3510;43.200;27.920;2024-02-04T07:55:08;7.17;;;5.10;;
6941;SDS011;3510;43.200;27.920;2024-02-04T07:57:35;9.10;;;6.17;;
6941;SDS011;3510;43.200;27.920;2024-02-04T08:00:04;6.77;;;5.37;;
6941;SDS011;3510;43.200;27.920;2024-02-04T08:02:35;5.47;;;4.93;;
6941;SDS011;3510;43.200;27.920;2024-02-04T08:05:01;4.97;;;4.47;;
6941;SDS011;3510;43.200;27.920;2024-02-04T08:07:30;3.43;;;3.13;;
6941;SDS011;3510;43.200;27.920;2024-02-04T08:09:56;5.63;;;3.87;;
6941;SDS011;3510;43.200;27.920;2024-02-04T08:12:23;4.60;;;4.20;;
6941;SDS011;3510;43.200;27.920;2024-02-04T08:14:50;3.37;;;3.17;;
6941;SDS011;3510;43.200;27.920;2024-02-04T08:17:17;4.20;;;3.80;;
6941;SDS011;3510;43.200;27.920;2024-02-04T08:19:44;3.17;;;2.97;;
6941;SDS011;3510;43.200;27.920;2024-02-04T08:22:10;4.90;;;3.53;;
6941;SDS011;3510;43.200;27.920;2024-02-04T08:24:38;4.27;;;3.33;;
6941;SDS011;3510;43.200;27.920;2024-02-04T08:27:05;2.20;;;2.00;;
6941;SDS011;3510;43.200;27.920;2024-02-04T08:29:33;4.40;;;4.00;;
6941;SDS011;3510;43.200;27.920;2024-02-04T08:32:00;3.70;;;3.40;;
6941;SDS011;3510;43.200;27.920;2024-02-04T08:34:29;4.57;;;2.80;;
6941;SDS011;3510;43.200;27.920;2024-02-04T08:36:56;4.77;;;3.17;;
6941;SDS011;3510;43.200;27.920;2024-02-04T08:39:22;3.63;;;3.30;;
6941;SDS011;3510;43.200;27.920;2024-02-04T08:41:52;3.03;;;2.83;;
6941;SDS011;3510;43.200;27.920;2024-02-04T08:44:19;3.20;;;2.90;;
6941;SDS011;3510;43.200;27.920;2024-02-04T08:46:45;3.37;;;3.17;;
6941;SDS011;3510;43.200;27.920;2024-02-04T08:49:12;6.87;;;3.00;;
6941;SDS011;3510;43.200;27.920;2024-02-04T08:51:39;4.43;;;3.17;;
6941;SDS011;3510;43.200;27.920;2024-02-04T08:54:06;3.93;;;3.53;;
6941;SDS011;3510;43.200;27.920;2024-02-04T08:56:33;4.07;;;3.77;;
6941;SDS011;3510;43.200;27.920;2024-02-04T08:59:01;2.90;;;2.67;;
6941;SDS011;3510;43.200;27.920;2024-02-04T09:01:28;3.63;;;3.33;;
6941;SDS011;3510;43.200;27.920;2024-02-04T09:03:54;4.33;;;2.47;;
6941;SDS011;3510;43.200;27.920;2024-02-04T09:06:21;4.90;;;3.10;;
6941;SDS011;3510;43.200;27.920;2024-02-04T09:08:48;4.27;;;3.87;;
6941;SDS011;3510;43.200;27.920;2024-02-04T09:11:14;4.27;;;3.87;;
6941;SDS011;3510;43.200;27.920;2024-02-04T09:13:44;4.33;;;4.03;;
6941;SDS011;3510;43.200;27.920;2024-02-04T09:16:12;4.90;;;3.90;;
6941;SDS011;3510;43.200;27.920;2024-02-04T09:18:39;8.87;;;3.60;;
6941;SDS011;3510;43.200;27.920;2024-02-04T09:21:06;4.03;;;3.73;;
6941;SDS011;3510;43.200;27.920;2024-02-04T09:23:33;3.77;;;3.37;;
6941;SDS011;3510;43.200;27.920;2024-02-04T09:25:59;4.67;;;3.97;;
6941;SDS011;3510;43.200;27.920;2024-02-04T09:28:26;4.33;;;3.57;;
6941;SDS011;3510;43.200;27.920;2024-02-04T09:30:53;3.77;;;3.50;;
6941;SDS011;3510;43.200;27.920;2024-02-04T09:33:21;3.97;;;3.67;;
6941;SDS011;3510;43.200;27.920;2024-02-04T09:35:47;4.60;;;3.73;;
6941;SDS011;3510;43.200;27.920;2024-02-04T09:38:14;4.30;;;3.90;;
6941;SDS011;3510;43.200;27.920;2024-02-04T09:40:41;5.47;;;3.13;;
6941;SDS011;3510;43.200;27.920;2024-02-04T09:43:08;3.17;;;2.87;;
6941;SDS011;3510;43.200;27.920;2024-02-04T09:45:36;3.23;;;2.93;;
6941;SDS011;3510;43.200;27.920;2024-02-04T09:48:04;2.67;;;2.40;;
6941;SDS011;3510;43.200;27.920;2024-02-04T09:50:34;4.00;;;3.57;;
6941;SDS011;3510;43.200;27.920;2024-02-04T09:53:00;5.20;;;4.33;;
6941;SDS011;3510;43.200;27.920;2024-02-04T09:55:31;5.83;;;5.43;;
6941;SDS011;3510;43.200;27.920;2024-02-04T09:57:58;7.70;;;4.73;;
6941;SDS011;3510;43.200;27.920;2024-02-04T10:00:27;5.50;;;5.07;;
6941;SDS011;3510;43.200;27.920;2024-02-04T10:02:55;6.10;;;5.53;;
6941;SDS011;3510;43.200;27.920;2024-02-04T10:05:22;5.50;;;3.93;;
6941;SDS011;3510;43.200;27.920;2024-02-04T10:07:51;4.43;;;4.13;;
6941;SDS011;3510;43.200;27.920;2024-02-04T10:10:18;5.20;;;4.70;;
6941;SDS011;3510;43.200;27.920;2024-02-04T10:12:44;3.73;;;3.53;;
6941;SDS011;3510;43.200;27.920;2024-02-04T10:15:11;4.87;;;4.47;;
6941;SDS011;3510;43.200;27.920;2024-02-04T10:17:41;4.30;;;3.90;;
6941;SDS011;3510;43.200;27.920;2024-02-04T10:20:09;5.67;;;3.53;;
6941;SDS011;3510;43.200;27.920;2024-02-04T10:22:37;4.13;;;3.37;;
6941;SDS011;3510;43.200;27.920;2024-02-04T10:25:08;4.60;;;4.20;;
6941;SDS011;3510;43.200;27.920;2024-02-04T10:27:37;4.57;;;4.27;;
6941;SDS011;3510;43.200;27.920;2024-02-04T10:30:04;4.80;;;4.10;;
6941;SDS011;3510;43.200;27.920;2024-02-04T10:32:32;7.53;;;5.27;;
6941;SDS011;3510;43.200;27.920;2024-02-04T10:34:58;4.20;;;3.90;;
6941;SDS011;3510;43.200;27.920;2024-02-04T10:37:26;6.87;;;5.37;;
6941;SDS011;3510;43.200;27.920;2024-02-04T10:39:53;5.40;;;5.00;;
6941;SDS011;3510;43.200;27.920;2024-02-04T10:42:22;5.73;;;4.83;;
6941;SDS011;3510;43.200;27.920;2024-02-04T10:44:51;6.10;;;5.60;;
6941;SDS011;3510;43.200;27.920;2024-02-04T10:47:21;5.17;;;4.77;;
6941;SDS011;3510;43.200;27.920;2024-02-04T10:49:50;7.50;;;5.23;;
6941;SDS011;3510;43.200;27.920;2024-02-04T10:52:18;5.37;;;4.40;;
6941;SDS011;3510;43.200;27.920;2024-02-04T10:54:46;5.20;;;4.70;;
6941;SDS011;3510;43.200;27.920;2024-02-04T10:57:16;5.30;;;4.87;;
6941;SDS011;3510;43.200;27.920;2024-02-04T10:59:48;7.30;;;5.73;;
6941;SDS011;3510;43.200;27.920;2024-02-04T11:02:15;6.10;;;4.87;;
6941;SDS011;3510;43.200;27.920;2024-02-04T11:04:43;5.50;;;5.10;;
6941;SDS011;3510;43.200;27.920;2024-02-04T11:07:11;3.90;;;3.60;;
6941;SDS011;3510;43.200;27.920;2024-02-04T11:09:39;4.70;;;4.40;;
6941;SDS011;3510;43.200;27.920;2024-02-04T11:12:11;4.33;;;4.03;;
6941;SDS011;3510;43.200;27.920;2024-02-04T11:14:41;4.10;;;3.87;;
6941;SDS011;3510;43.200;27.920;2024-02-04T11:17:19;4.40;;;4.00;;
6941;SDS011;3510;43.200;27.920;2024-02-04T11:20:06;4.57;;;4.27;;
6941;SDS011;3510;43.200;27.920;2024-02-04T11:25:36;4.27;;;4.03;;
6941;SDS011;3510;43.200;27.920;2024-02-04T11:28:10;3.60;;;3.40;;
6941;SDS011;3510;43.200;27.920;2024-02-04T11:30:37;4.30;;;3.10;;
6941;SDS011;3510;43.200;27.920;2024-02-04T11:33:06;4.03;;;3.83;;
6941;SDS011;3510;43.200;27.920;2024-02-04T11:35:33;3.60;;;3.40;;
6941;SDS011;3510;43.200;27.920;2024-02-04T11:38:00;2.70;;;2.60;;
6941;SDS011;3510;43.200;27.920;2024-02-04T11:40:30;3.60;;;3.40;;
6941;SDS011;3510;43.200;27.920;2024-02-04T11:43:03;5.03;;;3.27;;
6941;SDS011;3510;43.200;27.920;2024-02-04T11:45:31;3.03;;;2.83;;
6941;SDS011;3510;43.200;27.920;2024-02-04T11:48:00;3.27;;;3.07;;
6941;SDS011;3510;43.200;27.920;2024-02-04T11:50:29;2.60;;;2.50;;
6941;SDS011;3510;43.200;27.920;2024-02-04T11:53:03;5.00;;;3.30;;
6941;SDS011;3510;43.200;27.920;2024-02-04T11:55:32;3.27;;;3.10;;
6941;SDS011;3510;43.200;27.920;2024-02-04T11:57:59;3.83;;;3.63;;
6941;SDS011;3510;43.200;27.920;2024-02-04T12:00:26;3.27;;;2.70;;
6941;SDS011;3510;43.200;27.920;2024-02-04T12:03:02;3.67;;;3.43;;
6941;SDS011;3510;43.200;27.920;2024-02-04T12:05:32;2.50;;;2.30;;
6941;SDS011;3510;43.200;27.920;2024-02-04T12:08:01;3.13;;;2.92;;
6941;SDS011;3510;43.200;27.920;2024-02-04T12:10:30;3.53;;;3.33;;
6941;SDS011;3510;43.200;27.920;2024-02-04T12:12:58;2.90;;;2.80;;
6941;SDS011;3510;43.200;27.920;2024-02-04T12:15:25;3.00;;;2.73;;
6941;SDS011;3510;43.200;27.920;2024-02-04T12:17:53;3.17;;;3.00;;
6941;SDS011;3510;43.200;27.920;2024-02-04T12:20:20;3.93;;;3.63;;
6941;SDS011;3510;43.200;27.920;2024-02-04T12:22:48;3.83;;;3.60;;
6941;SDS011;3510;43.200;27.920;2024-02-04T12:25:15;3.20;;;3.00;;
6941;SDS011;3510;43.200;27.920;2024-02-04T12:27:43;3.77;;;3.47;;
6941;SDS011;3510;43.200;27.920;2024-02-04T12:30:13;3.57;;;3.37;;
6941;SDS011;3510;43.200;27.920;2024-02-04T12:32:40;3.90;;;3.60;;
6941;SDS011;3510;43.200;27.920;2024-02-04T12:35:07;4.00;;;3.63;;
6941;SDS011;3510;43.200;27.920;2024-02-04T12:37:34;2.53;;;2.43;;
6941;SDS011;3510;43.200;27.920;2024-02-04T12:40:03;3.50;;;3.30;;
6941;SDS011;3510;43.200;27.920;2024-02-04T12:42:31;3.73;;;3.53;;
6941;SDS011;3510;43.200;27.920;2024-02-04T12:45:00;4.13;;;3.77;;
6941;SDS011;3510;43.200;27.920;2024-02-04T12:47:27;3.43;;;3.13;;
6941;SDS011;3510;43.200;27.920;2024-02-04T12:49:58;2.80;;;2.70;;
6941;SDS011;3510;43.200;27.920;2024-02-04T12:52:27;4.33;;;3.10;;
6941;SDS011;3510;43.200;27.920;2024-02-04T12:54:56;3.93;;;3.57;;
6941;SDS011;3510;43.200;27.920;2024-02-04T12:57:24;3.77;;;3.47;;
6941;SDS011;3510;43.200;27.920;2024-02-04T12:59:52;5.07;;;3.87;;
6941;SDS011;3510;43.200;27.920;2024-02-04T13:02:30;3.40;;;3.10;;
6941;SDS011;3510;43.200;27.920;2024-02-04T13:04:58;2.83;;;2.63;;
6941;SDS011;3510;43.200;27.920;2024-02-04T13:07:25;3.53;;;3.33;;
6941;SDS011;3510;43.200;27.920;2024-02-04T13:09:57;3.80;;;3.50;;
6941;SDS011;3510;43.200;27.920;2024-02-04T13:12:25;2.50;;;2.40;;
6941;SDS011;3510;43.200;27.920;2024-02-04T13:14:52;4.00;;;3.70;;
6941;SDS011;3510;43.200;27.920;2024-02-04T13:17:19;3.70;;;3.40;;
6941;SDS011;3510;43.200;27.920;2024-02-04T13:19:45;6.17;;;3.73;;
6941;SDS011;3510;43.200;27.920;2024-02-04T13:22:13;3.97;;;3.67;;
6941;SDS011;3510;43.200;27.920;2024-02-04T13:24:40;3.37;;;3.17;;
6941;SDS011;3510;43.200;27.920;2024-02-04T13:27:06;3.60;;;3.40;;
6941;SDS011;3510;43.200;27.920;2024-02-04T13:29:35;4.30;;;4.00;;
6941;SDS011;3510;43.200;27.920;2024-02-04T13:32:02;3.77;;;3.57;;
6941;SDS011;3510;43.200;27.920;2024-02-04T13:34:29;4.60;;;4.30;;
6941;SDS011;3510;43.200;27.920;2024-02-04T13:36:56;4.27;;;4.07;;
6941;SDS011;3510;43.200;27.920;2024-02-04T13:39:22;3.80;;;3.50;;
6941;SDS011;3510;43.200;27.920;2024-02-04T13:41:49;3.90;;;3.70;;
6941;SDS011;3510;43.200;27.920;2024-02-04T13:44:16;4.37;;;3.97;;
6941;SDS011;3510;43.200;27.920;2024-02-04T13:46:44;4.20;;;4.00;;
6941;SDS011;3510;43.200;27.920;2024-02-04T13:49:11;4.77;;;3.87;;
6941;SDS011;3510;43.200;27.920;2024-02-04T13:51:38;3.80;;;3.60;;
6941;SDS011;3510;43.200;27.920;2024-02-04T13:54:05;5.13;;;4.73;;
6941;SDS011;3510;43.200;27.920;2024-02-04T13:56:32;6.83;;;6.20;;
6941;SDS011;3510;43.200;27.920;2024-02-04T13:58:58;5.63;;;5.17;;
6941;SDS011;3510;43.200;27.920;2024-02-04T14:01:25;5.47;;;4.97;;
6941;SDS011;3510;43.200;27.920;2024-02-04T14:03:54;4.80;;;4.40;;
6941;SDS011;3510;43.200;27.920;2024-02-04T14:06:20;5.30;;;4.90;;
6941;SDS011;3510;43.200;27.920;2024-02-04T14:08:47;4.33;;;3.90;;
6941;SDS011;3510;43.200;27.920;2024-02-04T14:11:14;5.00;;;4.50;;
6941;SDS011;3510;43.200;27.920;2024-02-04T14:13:40;7.33;;;6.70;;
6941;SDS011;3510;43.200;27.920;2024-02-04T14:16:07;7.17;;;6.53;;
6941;SDS011;3510;43.200;27.920;2024-02-04T14:18:34;4.47;;;4.17;;
6941;SDS011;3510;43.200;27.920;2024-02-04T14:21:03;4.73;;;4.27;;
6941;SDS011;3510;43.200;27.920;2024-02-04T14:23:32;4.47;;;4.17;;
6941;SDS011;3510;43.200;27.920;2024-02-04T14:25:58;5.40;;;4.37;;
6941;SDS011;3510;43.200;27.920;2024-02-04T14:28:25;4.10;;;3.90;;
6941;SDS011;3510;43.200;27.920;2024-02-04T14:30:52;5.23;;;3.80;;
6941;SDS011;3510;43.200;27.920;2024-02-04T14:33:19;6.40;;;3.47;;
6941;SDS011;3510;43.200;27.920;2024-02-04T14:35:45;4.90;;;4.40;;
6941;SDS011;3510;43.200;27.920;2024-02-04T14:38:13;3.90;;;3.70;;
6941;SDS011;3510;43.200;27.920;2024-02-04T14:40:40;3.73;;;3.40;;
6941;SDS011;3510;43.200;27.920;2024-02-04T14:43:07;3.20;;;3.10;;
6941;SDS011;3510;43.200;27.920;2024-02-04T14:45:34;3.50;;;3.30;;
6941;SDS011;3510;43.200;27.920;2024-02-04T14:48:01;3.47;;;3.27;;
6941;SDS011;3510;43.200;27.920;2024-02-04T14:50:28;3.90;;;3.70;;
6941;SDS011;3510;43.200;27.920;2024-02-04T14:52:54;4.50;;;4.00;;
6941;SDS011;3510;43.200;27.920;2024-02-04T14:55:22;3.30;;;3.10;;
6941;SDS011;3510;43.200;27.920;2024-02-04T14:57:49;4.13;;;3.83;;
6941;SDS011;3510;43.200;27.920;2024-02-04T15:00:16;4.20;;;3.90;;
6941;SDS011;3510;43.200;27.920;2024-02-04T15:02:46;4.83;;;4.47;;
6941;SDS011;3510;43.200;27.920;2024-02-04T15:05:13;4.87;;;4.50;;